createdAt,value
2023-05-11T00:01:29.191Z,47.63
2023-05-11T00:03:56.931Z,47.41
2023-05-11T00:06:25.201Z,47.23
2023-05-11T00:08:52.892Z,47.43
2023-05-11T00:11:21.727Z,47.39
2023-05-11T00:13:49.705Z,47.27
2023-05-11T00:16:17.513Z,47.22
2023-05-11T00:18:45.575Z,47.41
2023-05-11T00:21:13.355Z,47.42
2023-05-11T00:23:40.948Z,47.39
2023-05-11T00:26:08.756Z,47.19
2023-05-11T00:28:36.581Z,47.28
2023-05-11T00:31:04.387Z,47.17
2023-05-11T00:33:32.312Z,47.18
2023-05-11T00:35:59.983Z,47.13
2023-05-11T00:38:27.713Z,47.32
2023-05-11T00:40:55.346Z,47.05
2023-05-11T00:43:22.932Z,46.71
2023-05-11T00:45:52.348Z,46.82
2023-05-11T00:48:20.011Z,46.62
2023-05-11T00:50:48.696Z,46.77
2023-05-11T00:53:16.647Z,46.37
2023-05-11T00:55:45.102Z,46.33
2023-05-11T00:58:13.027Z,46.27
2023-05-11T01:00:41.256Z,45.83
2023-05-11T01:03:09.096Z,45.92
2023-05-11T01:05:49.935Z,45.89
2023-05-11T01:08:31.220Z,46.29
2023-05-11T01:11:08.231Z,46.37
2023-05-11T01:13:45.948Z,46.23
2023-05-11T01:16:21.988Z,46.10
2023-05-11T01:18:59.132Z,46.50
2023-05-11T01:21:31.595Z,46.41
2023-05-11T01:24:17.841Z,46.68
2023-05-11T01:26:55.632Z,46.97
2023-05-11T01:29:42.596Z,47.07
2023-05-11T01:32:20.745Z,46.94
2023-05-11T01:34:53.348Z,46.98
2023-05-11T01:37:25.858Z,47.63
2023-05-11T01:40:05.520Z,47.53
2023-05-11T01:42:40.528Z,47.54
2023-05-11T01:45:10.738Z,47.81
2023-05-11T01:47:41.813Z,47.96
2023-05-11T01:50:11.094Z,47.97
2023-05-11T01:52:40.890Z,48.00
2023-05-11T01:55:10.631Z,47.92
2023-05-11T01:57:39.674Z,48.19
2023-05-11T02:00:08.766Z,48.21
2023-05-11T02:02:37.001Z,48.08
2023-05-11T02:05:06.288Z,48.37
2023-05-11T02:07:36.429Z,48.68
2023-05-11T02:10:04.701Z,48.35
2023-05-11T02:12:35.595Z,49.08
2023-05-11T02:15:04.692Z,49.42
2023-05-11T02:17:34.173Z,49.84
2023-05-11T02:20:04.031Z,50.30
2023-05-11T02:22:33.446Z,52.01
2023-05-11T02:25:01.299Z,53.86
2023-05-11T02:27:28.982Z,54.92
2023-05-11T02:29:56.624Z,55.87
2023-05-11T02:32:26.005Z,56.65
2023-05-11T02:35:00.387Z,57.10
2023-05-11T02:37:30.580Z,57.65
2023-05-11T02:40:02.662Z,58.08
2023-05-11T02:48:26.575Z,59.17
2023-05-11T02:50:56.984Z,59.64
2023-05-11T02:53:28.802Z,59.89
2023-05-11T02:55:58.242Z,60.12
2023-05-11T02:58:26.324Z,60.32
2023-05-11T03:00:54.883Z,60.46
2023-05-11T03:03:22.695Z,60.42
2023-05-11T03:05:50.336Z,60.42
2023-05-11T03:08:18.155Z,60.46
2023-05-11T03:10:47.088Z,60.16
2023-05-11T03:13:17.623Z,60.07
2023-05-11T03:15:45.624Z,60.93
2023-05-11T03:18:13.788Z,60.81
2023-05-11T03:20:43.367Z,60.82
2023-05-11T03:23:13.631Z,60.91
2023-05-11T03:25:43.576Z,61.11
2023-05-11T03:28:13.710Z,60.86
2023-05-11T03:33:39.767Z,61.16
2023-05-11T03:36:10.561Z,60.67
2023-05-11T03:38:39.473Z,60.62
2023-05-11T03:41:07.079Z,60.76
2023-05-11T03:43:35.868Z,61.08
2023-05-11T03:46:05.181Z,60.13
2023-05-11T03:48:33.359Z,59.54
2023-05-11T03:51:01.073Z,59.50
2023-05-11T03:53:30.435Z,58.21
2023-05-11T03:55:58.465Z,57.08
2023-05-11T03:58:26.193Z,56.80
2023-05-11T04:00:54.004Z,57.25
2023-05-11T04:03:22.338Z,56.89
2023-05-11T04:05:50.136Z,57.41
2023-05-11T04:08:17.708Z,56.04
2023-05-11T04:10:45.552Z,54.60
2023-05-11T04:13:15.351Z,54.91
2023-05-11T04:15:42.977Z,54.83
2023-05-11T04:18:11.183Z,53.61
2023-05-11T04:20:39.116Z,52.39
2023-05-11T04:23:08.424Z,52.44
2023-05-11T04:25:38.021Z,52.78
2023-05-11T04:28:05.823Z,52.28
2023-05-11T04:30:33.697Z,52.90
2023-05-11T04:33:01.591Z,52.14
2023-05-11T04:35:29.336Z,50.82
2023-05-11T04:37:56.997Z,51.01
2023-05-11T04:40:24.656Z,49.53
2023-05-11T04:42:52.298Z,49.01
2023-05-11T04:45:19.980Z,48.78
2023-05-11T04:47:47.754Z,49.34
2023-05-11T04:50:15.869Z,48.14
2023-05-11T04:52:43.627Z,47.66
2023-05-11T04:55:11.398Z,47.48
2023-05-11T04:57:39.410Z,47.36
2023-05-11T05:00:08.808Z,47.10
2023-05-11T05:02:36.723Z,47.31
2023-05-11T05:05:04.761Z,46.38
2023-05-11T05:07:32.405Z,46.48
2023-05-11T05:10:00.209Z,46.48
2023-05-11T05:12:27.867Z,46.54
2023-05-11T05:14:55.494Z,45.84
2023-05-11T05:17:23.346Z,46.07
2023-05-11T05:19:51.127Z,46.05
2023-05-11T05:22:18.907Z,45.59
2023-05-11T05:24:46.869Z,45.26
2023-05-11T05:27:14.463Z,44.73
2023-05-11T05:29:42.223Z,44.18
2023-05-11T05:32:10.336Z,43.69
2023-05-11T05:34:37.961Z,42.98
2023-05-11T05:37:05.808Z,42.16
2023-05-11T05:39:34.337Z,41.07
2023-05-11T05:42:03.162Z,39.93
2023-05-11T05:44:31.334Z,38.42
2023-05-11T05:46:58.943Z,37.32
2023-05-11T05:49:26.549Z,36.83
2023-05-11T05:51:54.568Z,36.63
2023-05-11T05:54:46.230Z,36.13
2023-05-11T05:57:15.688Z,35.39
2023-05-11T05:59:44.184Z,34.84
2023-05-11T06:02:13.581Z,34.03
2023-05-11T06:04:42.282Z,34.80
2023-05-11T06:07:10.042Z,34.84
2023-05-11T06:09:39.122Z,32.52
2023-05-11T06:12:07.166Z,32.87
2023-05-11T06:14:34.930Z,32.68
2023-05-11T06:17:02.704Z,31.35
2023-05-11T06:19:30.544Z,31.71
2023-05-11T06:21:58.171Z,30.99
2023-05-11T06:24:25.951Z,31.37
2023-05-11T06:26:55.061Z,31.82
2023-05-11T06:29:22.977Z,31.54
2023-05-11T06:31:54.423Z,30.03
2023-05-11T06:34:22.630Z,30.20
2023-05-11T06:36:50.392Z,29.34
2023-05-11T06:39:17.983Z,29.19
2023-05-11T06:41:45.838Z,29.61
2023-05-11T06:44:13.545Z,29.94
2023-05-11T06:46:41.424Z,28.49
2023-05-11T06:49:09.139Z,29.48
2023-05-11T06:51:36.921Z,30.27
2023-05-11T06:54:04.707Z,29.10
2023-05-11T06:56:34.102Z,28.99
2023-05-11T06:59:01.791Z,28.56
2023-05-11T07:01:29.620Z,28.85
2023-05-11T07:03:57.454Z,29.09
2023-05-11T07:06:25.146Z,29.44
2023-05-11T07:08:52.932Z,29.64
2023-05-11T07:11:21.957Z,28.25
2023-05-11T07:13:49.640Z,27.51
2023-05-11T07:16:17.547Z,28.16
2023-05-11T07:18:45.191Z,28.75
2023-05-11T07:21:12.858Z,27.96
2023-05-11T07:23:40.862Z,27.46
2023-05-11T07:26:09.363Z,26.99
2023-05-11T07:28:37.621Z,27.21
2023-05-11T07:31:05.966Z,27.46
2023-05-11T07:33:34.736Z,26.87
2023-05-11T07:36:02.394Z,26.49
2023-05-11T07:38:30.072Z,26.38
2023-05-11T07:40:58.297Z,26.37
2023-05-11T07:43:26.073Z,26.39
2023-05-11T07:45:53.825Z,27.07
2023-05-11T07:48:24.574Z,26.66
2023-05-11T07:50:52.291Z,26.50
2023-05-11T07:53:19.927Z,26.21
2023-05-11T07:55:47.711Z,26.19
2023-05-11T07:58:15.417Z,25.86
2023-05-11T08:00:43.126Z,25.75
2023-05-11T08:03:10.982Z,25.04
2023-05-11T08:05:38.863Z,24.73
2023-05-11T08:08:06.743Z,25.25
2023-05-11T08:10:36.455Z,24.93
2023-05-11T08:13:04.167Z,25.49
2023-05-11T08:15:32.225Z,24.95
2023-05-11T08:18:00.605Z,24.47
2023-05-11T08:20:28.534Z,24.75
2023-05-11T08:22:56.191Z,24.84
2023-05-11T08:25:23.932Z,23.97
2023-05-11T08:27:51.754Z,24.81
2023-05-11T08:30:19.556Z,25.69
2023-05-11T08:32:57.700Z,25.42
2023-05-11T08:35:27.252Z,25.56
2023-05-11T08:37:55.099Z,24.83
2023-05-11T08:40:27.687Z,24.17
2023-05-11T08:42:59.301Z,24.23
2023-05-11T08:45:27.705Z,24.78
2023-05-11T08:47:55.716Z,24.49
2023-05-11T08:50:23.668Z,24.41
2023-05-11T08:52:51.347Z,24.74
2023-05-11T08:55:19.485Z,24.83
2023-05-11T08:57:47.513Z,24.54
2023-05-11T09:00:16.325Z,24.65
2023-05-11T09:02:44.264Z,24.65
2023-05-11T09:05:12.526Z,24.94
2023-05-11T09:07:42.418Z,24.72
2023-05-11T09:10:12.873Z,24.69
2023-05-11T09:12:41.521Z,24.26
2023-05-11T09:15:09.589Z,23.40
2023-05-11T09:17:37.426Z,23.11
2023-05-11T09:20:06.883Z,22.86
2023-05-11T09:22:44.045Z,23.28
2023-05-11T09:25:17.580Z,23.03
2023-05-11T09:27:46.765Z,22.20
2023-05-11T09:30:22.087Z,22.26
2023-05-11T09:32:51.356Z,22.67
2023-05-11T09:35:34.470Z,22.85
2023-05-11T09:38:12.621Z,23.30
2023-05-11T09:40:55.052Z,24.21
2023-05-11T09:43:28.600Z,24.25
2023-05-11T09:46:04.781Z,23.18
2023-05-11T09:48:34.012Z,22.52
2023-05-11T09:51:06.854Z,22.60
2023-05-11T09:53:39.265Z,23.56
2023-05-11T09:56:07.310Z,22.59
2023-05-11T09:58:55.217Z,21.65
2023-05-11T10:01:30.953Z,21.34
2023-05-11T10:04:13.868Z,21.07
2023-05-11T10:06:52.929Z,20.46
2023-05-11T10:09:24.575Z,20.79
2023-05-11T10:11:53.585Z,20.14
2023-05-11T10:14:22.528Z,19.95
2023-05-11T10:16:52.282Z,19.97
2023-05-11T10:19:20.248Z,21.04
2023-05-11T10:21:48.472Z,20.25
2023-05-11T10:24:19.691Z,20.19
2023-05-11T10:26:48.764Z,20.77
2023-05-11T10:29:19.322Z,20.81
2023-05-11T10:31:48.660Z,20.84
2023-05-11T10:34:17.667Z,20.10
2023-05-11T10:36:46.823Z,20.55
2023-05-11T10:39:14.527Z,20.83
2023-05-11T10:41:49.064Z,21.09
2023-05-11T10:44:30.722Z,21.02
2023-05-11T10:47:31.413Z,20.94
2023-05-11T10:50:19.616Z,20.86
2023-05-11T10:52:48.495Z,21.11
2023-05-11T10:55:38.760Z,20.85
2023-05-11T10:58:17.953Z,21.30
2023-05-11T11:01:18.770Z,21.33
2023-05-11T11:04:02.732Z,21.18
2023-05-11T11:06:31.437Z,19.82
2023-05-11T11:09:05.401Z,20.11
2023-05-11T11:12:10.867Z,19.65
2023-05-11T11:14:59.706Z,20.09
2023-05-11T11:17:32.503Z,20.83
2023-05-11T11:20:08.460Z,20.35
2023-05-11T11:22:36.356Z,20.23
2023-05-11T11:25:10.708Z,19.54
2023-05-11T11:27:41.167Z,19.44
2023-05-11T11:30:30.457Z,19.19
2023-05-11T11:33:07.370Z,20.21
2023-05-11T11:35:41.418Z,20.53
2023-05-11T11:38:18.068Z,20.35
2023-05-11T11:40:51.907Z,19.51
2023-05-11T11:43:22.508Z,18.79
2023-05-11T11:45:54.172Z,18.47
2023-05-11T11:48:32.448Z,19.13
2023-05-11T11:51:08.973Z,18.89
2023-05-11T11:53:37.080Z,19.16
2023-05-11T11:56:06.126Z,18.55
2023-05-11T11:58:46.224Z,17.99
2023-05-11T12:01:15.916Z,17.16
2023-05-11T12:03:46.843Z,17.82
2023-05-11T12:06:25.040Z,19.44
2023-05-11T12:08:54.263Z,20.18
2023-05-11T12:11:23.229Z,20.34
2023-05-11T12:13:51.024Z,19.91
2023-05-11T12:16:19.052Z,20.32
2023-05-11T12:19:01.045Z,19.67
2023-05-11T12:21:32.508Z,20.49
2023-05-11T12:24:02.587Z,21.22
2023-05-11T12:26:33.419Z,20.69
2023-05-11T12:29:12.797Z,20.62
2023-05-11T12:31:42.728Z,19.58
2023-05-11T12:34:17.853Z,18.92
2023-05-11T12:36:47.077Z,18.76
2023-05-11T12:39:20.164Z,18.72
2023-05-11T12:41:54.043Z,18.58
2023-05-11T12:44:24.495Z,18.76
2023-05-11T12:46:52.960Z,19.65
2023-05-11T12:49:26.247Z,20.04
2023-05-11T12:51:57.561Z,20.49
2023-05-11T12:54:31.180Z,19.85
2023-05-11T12:57:03.076Z,19.45
2023-05-11T12:59:35.495Z,20.60
2023-05-11T13:02:13.101Z,21.52
2023-05-11T13:04:42.484Z,21.32
2023-05-11T13:07:11.468Z,22.06
2023-05-11T13:09:40.510Z,20.75
2023-05-11T13:12:17.681Z,20.49
2023-05-11T13:14:47.776Z,20.78
2023-05-11T13:17:37.308Z,21.52
2023-05-11T13:20:17.185Z,21.89
2023-05-11T13:22:45.795Z,21.34
2023-05-11T13:25:19.231Z,21.23
2023-05-11T13:27:47.560Z,22.20
2023-05-11T13:30:15.459Z,22.27
2023-05-11T13:32:43.188Z,22.01
2023-05-11T13:35:10.879Z,21.91
2023-05-11T13:37:41.929Z,21.00
2023-05-11T13:40:10.539Z,20.30
2023-05-11T13:42:38.251Z,20.54
2023-05-11T13:45:06.530Z,21.16
2023-05-11T13:47:34.758Z,21.17
2023-05-11T13:50:03.757Z,20.80
2023-05-11T13:52:31.741Z,21.30
2023-05-11T13:54:59.494Z,21.11
2023-05-11T13:57:27.340Z,20.83
2023-05-11T13:59:54.960Z,21.18
2023-05-11T14:02:22.731Z,21.06
2023-05-11T14:04:50.620Z,20.98
2023-05-11T14:07:18.277Z,21.52
2023-05-11T14:09:47.847Z,22.26
2023-05-11T14:12:15.520Z,21.72
2023-05-11T14:14:43.222Z,21.44
2023-05-11T14:17:13.416Z,21.49
2023-05-11T14:19:41.174Z,21.22
2023-05-11T14:22:08.895Z,20.90
2023-05-11T14:24:37.341Z,22.04
2023-05-11T14:27:05.977Z,21.63
2023-05-11T14:29:42.630Z,21.85
2023-05-11T14:32:12.061Z,21.79
2023-05-11T14:34:39.789Z,21.55
2023-05-11T14:37:07.484Z,21.07
2023-05-11T14:39:35.103Z,21.65
2023-05-11T14:42:03.325Z,21.37
2023-05-11T14:44:31.868Z,22.17
2023-05-11T14:46:59.750Z,21.64
2023-05-11T14:49:27.515Z,20.28
2023-05-11T14:51:55.254Z,19.27
2023-05-11T14:54:24.038Z,20.29
2023-05-11T14:56:54.200Z,19.45
2023-05-11T14:59:24.423Z,18.71
2023-05-11T15:01:52.170Z,18.37
2023-05-11T15:04:20.394Z,19.76
2023-05-11T15:06:50.410Z,19.93
2023-05-11T15:09:20.364Z,20.38
2023-05-11T15:11:48.089Z,19.69
2023-05-11T15:14:16.908Z,19.16
2023-05-11T15:16:45.727Z,18.62
2023-05-11T15:19:13.774Z,17.64
2023-05-11T15:21:41.604Z,16.94
2023-05-11T15:24:10.965Z,17.62
2023-05-11T15:26:38.806Z,17.32
2023-05-11T15:29:07.554Z,18.15
2023-05-11T15:31:35.650Z,18.09
2023-05-11T15:34:03.579Z,17.31
2023-05-11T15:36:31.416Z,16.85
2023-05-11T15:38:59.777Z,16.17
2023-05-11T15:41:27.491Z,17.09
2023-05-11T15:43:55.208Z,16.74
2023-05-11T15:46:23.440Z,17.31
2023-05-11T15:48:51.706Z,18.21
2023-05-11T15:51:19.522Z,18.18
2023-05-11T15:53:48.099Z,18.21
2023-05-11T15:56:15.925Z,18.48
2023-05-11T15:58:43.736Z,17.72
2023-05-11T16:01:11.915Z,18.41
2023-05-11T16:03:39.865Z,20.21
2023-05-11T16:06:07.765Z,22.50
2023-05-11T16:08:35.617Z,23.55
2023-05-11T16:11:03.429Z,24.42
2023-05-11T16:13:31.229Z,24.65
2023-05-11T16:16:00.228Z,25.47
2023-05-11T16:18:28.693Z,25.98
2023-05-11T16:20:56.486Z,25.97
2023-05-11T16:23:25.467Z,26.88
2023-05-11T16:25:53.568Z,26.92
2023-05-11T16:28:21.311Z,27.46
2023-05-11T16:30:49.099Z,27.74
2023-05-11T16:33:17.409Z,27.70
2023-05-11T16:35:45.293Z,27.61
2023-05-11T16:38:17.634Z,27.66
2023-05-11T16:40:45.391Z,27.65
2023-05-11T16:43:13.036Z,27.73
2023-05-11T16:45:40.870Z,27.60
2023-05-11T16:48:08.665Z,27.63
2023-05-11T16:50:36.571Z,27.45
2023-05-11T16:53:05.008Z,27.47
2023-05-11T16:55:33.173Z,28.15
2023-05-11T16:58:00.816Z,28.15
2023-05-11T17:00:28.570Z,27.93
2023-05-11T17:02:56.604Z,28.34
2023-05-11T17:05:24.341Z,28.32
2023-05-11T17:07:52.548Z,28.32
2023-05-11T17:10:20.489Z,28.57
2023-05-11T17:12:48.410Z,28.42
2023-05-11T17:15:16.135Z,28.86
2023-05-11T17:17:43.762Z,28.97
2023-05-11T17:20:12.673Z,28.96
2023-05-11T17:22:40.364Z,29.17
2023-05-11T17:25:08.845Z,29.20
2023-05-11T17:27:37.395Z,29.19
2023-05-11T17:30:06.485Z,29.52
2023-05-11T17:32:34.533Z,29.57
2023-05-11T17:35:03.987Z,29.78
2023-05-11T17:37:32.625Z,29.69
2023-05-11T17:40:01.403Z,29.89
2023-05-11T17:42:29.149Z,30.02
2023-05-11T17:44:57.072Z,30.37
2023-05-11T17:47:24.865Z,30.25
2023-05-11T17:49:52.490Z,30.76
2023-05-11T17:52:20.139Z,30.87
2023-05-11T17:54:48.171Z,31.47
2023-05-11T17:57:15.886Z,31.50
2023-05-11T17:59:43.710Z,31.29
2023-05-11T18:02:12.029Z,31.78
2023-05-11T18:04:41.974Z,32.27
2023-05-11T18:07:09.728Z,32.56
2023-05-11T18:09:37.457Z,33.16
2023-05-11T18:12:05.903Z,32.91
2023-05-11T18:14:33.702Z,33.55
2023-05-11T18:17:02.412Z,34.38
2023-05-11T18:19:30.491Z,35.30
2023-05-11T18:21:59.131Z,35.24
2023-05-11T18:24:26.986Z,35.19
2023-05-11T18:26:54.671Z,35.89
2023-05-11T18:29:23.053Z,35.76
2023-05-11T18:31:51.286Z,36.59
2023-05-11T18:34:20.355Z,38.07
2023-05-11T18:36:48.113Z,38.15
2023-05-11T18:39:16.051Z,38.19
2023-05-11T18:41:43.895Z,38.15
2023-05-11T18:44:11.795Z,38.12
2023-05-11T18:46:39.513Z,38.67
